createdAt,value
2022-08-07T00:02:36.194Z,80.35
2022-08-07T00:04:17.855Z,80.57
2022-08-07T00:06:53.674Z,79.90
2022-08-07T00:09:29.143Z,78.95
2022-08-07T00:12:06.242Z,78.83
2022-08-07T00:14:35.742Z,80.08
2022-08-07T00:17:06.718Z,78.98
2022-08-07T00:20:02.763Z,77.91
2022-08-07T00:22:35.349Z,77.37
2022-08-07T00:25:07.338Z,80.42
2022-08-07T00:27:53.774Z,78.38
2022-08-07T00:30:28.552Z,78.07
2022-08-07T00:32:59.005Z,80.39
2022-08-07T00:35:30.408Z,83.54
2022-08-07T00:38:01.151Z,83.46
2022-08-07T00:40:36.281Z,84.86
2022-08-07T00:43:10.625Z,83.98
2022-08-07T00:46:01.776Z,84.90
2022-08-07T00:48:32.654Z,83.21
2022-08-07T00:51:03.628Z,83.41
2022-08-07T00:53:39.247Z,82.32
2022-08-07T00:56:30.209Z,83.75
2022-08-07T00:59:01.678Z,82.00
2022-08-07T01:01:43.988Z,80.74
2022-08-07T01:04:24.595Z,82.10
2022-08-07T01:06:59.288Z,81.46
2022-08-07T01:10:04.292Z,83.48
2022-08-07T01:12:29.734Z,85.11
2022-08-07T01:15:03.744Z,85.70
2022-08-07T01:17:36.260Z,85.07
2022-08-07T01:20:16.701Z,84.78
2022-08-07T01:23:00.500Z,82.23
2022-08-07T01:25:55.426Z,85.07
2022-08-07T01:28:28.087Z,83.90
2022-08-07T01:31:01.432Z,82.02
2022-08-07T01:33:55.461Z,81.94
2022-08-07T01:36:33.892Z,86.91
2022-08-07T01:39:13.145Z,86.89
2022-08-07T01:41:55.032Z,85.33
2022-08-07T01:44:42.904Z,87.02
2022-08-07T01:48:17.891Z,86.21
2022-08-07T01:50:15.880Z,83.06
2022-08-07T01:52:58.756Z,83.07
2022-08-07T01:55:39.051Z,83.55
2022-08-07T01:58:28.886Z,84.62
2022-08-07T02:01:44.801Z,84.92
2022-08-07T02:04:08.070Z,84.87
2022-08-07T02:06:45.923Z,84.93
2022-08-07T02:09:37.467Z,85.84
2022-08-07T02:12:22.129Z,85.48
2022-08-07T02:15:06.762Z,84.55
2022-08-07T02:17:49.860Z,84.22
2022-08-07T02:20:24.753Z,85.95
2022-08-07T02:23:07.598Z,84.20
2022-08-07T02:26:10.305Z,83.83
2022-08-07T02:28:40.193Z,84.48
2022-08-07T02:31:29.087Z,85.40
2022-08-07T02:34:10.934Z,85.56
2022-08-07T02:36:53.863Z,85.66
2022-08-07T02:39:43.181Z,85.75
2022-08-07T02:42:19.673Z,85.12
2022-08-07T02:44:54.085Z,87.96
2022-08-07T02:47:44.832Z,89.15
2022-08-07T02:50:19.640Z,89.04
2022-08-07T02:53:03.279Z,88.73
2022-08-07T02:56:02.990Z,88.46
2022-08-07T02:58:33.781Z,87.48
2022-08-07T03:01:05.963Z,86.78
2022-08-07T03:03:50.381Z,86.45
2022-08-07T03:06:35.899Z,86.94
2022-08-07T03:09:44.509Z,86.71
2022-08-07T03:12:08.120Z,85.55
2022-08-07T03:14:53.236Z,84.88
2022-08-07T03:17:25.069Z,84.67
2022-08-07T03:19:57.957Z,84.29
2022-08-07T03:22:31.177Z,84.43
2022-08-07T03:25:02.660Z,84.39
2022-08-07T03:28:08.834Z,84.44
2022-08-07T03:30:34.343Z,87.20
2022-08-07T03:33:08.023Z,85.98
2022-08-07T03:35:50.238Z,87.13
2022-08-07T03:38:29.572Z,86.92
2022-08-07T03:41:03.993Z,86.72
2022-08-07T03:43:36.095Z,85.69
2022-08-07T03:46:10.398Z,86.13
2022-08-07T03:49:02.558Z,86.59
2022-08-07T03:51:47.081Z,85.75
2022-08-07T03:54:36.344Z,85.26
2022-08-07T03:58:35.342Z,85.30
2022-08-07T04:00:07.174Z,85.70
2022-08-07T04:02:49.445Z,84.55
2022-08-07T04:05:39.512Z,84.78
2022-08-07T04:08:18.281Z,84.19
2022-08-07T04:10:54.290Z,83.68
2022-08-07T04:14:09.410Z,82.85
2022-08-07T04:16:34.343Z,82.70
2022-08-07T04:19:12.820Z,82.92
2022-08-07T04:21:59.043Z,82.37
2022-08-07T04:24:38.735Z,81.64
2022-08-07T04:27:15.251Z,81.48
2022-08-07T04:30:01.629Z,81.38
2022-08-07T04:32:47.948Z,79.55
2022-08-07T04:35:19.928Z,79.37
2022-08-07T04:38:03.017Z,78.36
2022-08-07T04:40:51.338Z,77.73
2022-08-07T04:44:12.715Z,77.06
2022-08-07T04:46:34.333Z,76.89
2022-08-07T04:49:18.084Z,76.05
2022-08-07T04:52:26.488Z,75.67
2022-08-07T04:55:15.370Z,75.23
2022-08-07T04:58:11.625Z,74.86
2022-08-07T05:01:13.494Z,74.17
2022-08-07T05:04:12.327Z,74.67
2022-08-07T05:06:54.779Z,72.47
2022-08-07T05:10:01.420Z,73.79
2022-08-07T05:12:51.458Z,69.88
2022-08-07T05:15:34.589Z,67.11
2022-08-07T05:18:14.546Z,67.09
2022-08-07T05:20:48.365Z,65.32
2022-08-07T05:23:30.009Z,63.63
2022-08-07T05:26:15.677Z,63.32
2022-08-07T05:28:53.482Z,62.98
2022-08-07T05:31:35.347Z,61.80
2022-08-07T05:34:15.667Z,61.42
2022-08-07T05:36:53.186Z,59.89
2022-08-07T05:40:17.404Z,59.47
2022-08-07T05:42:33.794Z,58.37
2022-08-07T05:45:25.845Z,57.31
2022-08-07T05:48:02.330Z,55.85
2022-08-07T05:50:43.818Z,56.72
2022-08-07T05:54:12.732Z,54.13
2022-08-07T05:56:05.888Z,54.51
2022-08-07T05:58:42.130Z,53.32
2022-08-07T06:01:23.422Z,54.91
2022-08-07T06:04:01.128Z,52.93
2022-08-07T06:06:37.007Z,53.13
2022-08-07T06:09:08.993Z,51.95
2022-08-07T06:11:43.637Z,50.78
2022-08-07T06:14:20.877Z,49.88
2022-08-07T06:16:55.856Z,49.58
2022-08-07T06:19:58.314Z,49.58
2022-08-07T06:22:24.129Z,49.41
2022-08-07T06:25:19.709Z,47.63
2022-08-07T06:28:01.686Z,47.03
2022-08-07T06:30:37.290Z,47.48
2022-08-07T06:33:16.701Z,46.93
2022-08-07T06:36:13.326Z,47.96
2022-08-07T06:38:38.229Z,46.71
2022-08-07T06:41:13.283Z,46.40
2022-08-07T06:44:01.438Z,46.16
2022-08-07T06:46:36.267Z,45.82
2022-08-07T06:49:08.822Z,45.65
2022-08-07T06:51:49.655Z,45.57
2022-08-07T06:55:32.936Z,44.58
2022-08-07T06:57:11.994Z,43.26
2022-08-07T07:00:11.707Z,42.42
2022-08-07T07:02:48.475Z,42.36
2022-08-07T07:06:02.960Z,41.82
2022-08-07T07:08:18.482Z,41.98
2022-08-07T07:10:57.344Z,40.99
2022-08-07T07:13:58.327Z,40.41
2022-08-07T07:16:39.248Z,40.21
2022-08-07T07:19:57.051Z,39.95
2022-08-07T07:22:36.673Z,38.24
2022-08-07T07:26:31.382Z,38.53
2022-08-07T07:28:42.118Z,38.97
2022-08-07T07:31:21.477Z,38.17
2022-08-07T07:33:57.095Z,36.96
2022-08-07T07:36:32.316Z,37.09
2022-08-07T07:39:03.908Z,36.73
2022-08-07T07:42:01.903Z,35.88
2022-08-07T07:44:26.706Z,36.40
2022-08-07T07:47:12.074Z,36.63
2022-08-07T07:50:35.772Z,36.05
2022-08-07T07:52:40.035Z,35.95
2022-08-07T07:55:10.920Z,34.92
2022-08-07T07:57:51.683Z,35.24
2022-08-07T08:00:29.987Z,34.88
2022-08-07T08:03:08.227Z,35.21
2022-08-07T08:05:50.846Z,33.35
2022-08-07T08:08:34.346Z,31.20
2022-08-07T08:11:08.031Z,32.03
2022-08-07T08:13:52.862Z,30.81
2022-08-07T08:16:38.187Z,31.01
2022-08-07T08:20:15.629Z,30.69
2022-08-07T08:22:19.314Z,30.98
2022-08-07T08:25:24.619Z,30.71
2022-08-07T08:28:03.690Z,30.71
2022-08-07T08:30:42.470Z,30.37
2022-08-07T08:33:18.975Z,30.38
2022-08-07T08:35:56.096Z,29.93
2022-08-07T08:38:29.879Z,29.83
2022-08-07T08:41:58.325Z,30.37
2022-08-07T08:44:45.697Z,29.11
2022-08-07T08:47:56.079Z,28.80
2022-08-07T08:50:39.498Z,28.72
2022-08-07T08:53:20.638Z,29.84
2022-08-07T08:55:59.363Z,29.37
2022-08-07T08:59:06.651Z,27.36
2022-08-07T09:02:14.360Z,27.54
2022-08-07T09:05:03.401Z,26.93
2022-08-07T09:07:57.576Z,27.44
2022-08-07T09:10:45.524Z,26.11
2022-08-07T09:13:37.132Z,25.19
2022-08-07T09:16:30.824Z,25.51
2022-08-07T09:19:51.418Z,24.68
2022-08-07T09:24:32.613Z,24.48
2022-08-07T09:25:54.228Z,25.41
2022-08-07T09:30:05.063Z,24.56
2022-08-07T09:32:03.426Z,25.49
2022-08-07T09:36:04.205Z,25.33
2022-08-07T09:38:54.637Z,25.74
2022-08-07T09:41:58.855Z,26.16
2022-08-07T09:47:23.984Z,25.79
2022-08-07T09:50:02.605Z,26.74
2022-08-07T09:52:35.262Z,25.72
2022-08-07T09:55:36.885Z,24.75
2022-08-07T09:58:51.284Z,24.74
2022-08-07T10:02:04.860Z,24.74
2022-08-07T10:05:12.381Z,24.15
2022-08-07T10:07:59.792Z,23.31
2022-08-07T10:11:17.199Z,22.77
2022-08-07T10:14:31.199Z,23.17
2022-08-07T10:17:16.849Z,22.52
2022-08-07T10:20:12.790Z,21.37
2022-08-07T10:23:10.897Z,21.36
2022-08-07T10:25:58.692Z,22.51
2022-08-07T10:28:49.473Z,22.83
2022-08-07T10:31:53.996Z,23.50
2022-08-07T10:34:54.736Z,23.14
2022-08-07T10:38:09.830Z,22.22
2022-08-07T10:40:56.677Z,21.78
2022-08-07T10:43:34.708Z,21.43
2022-08-07T10:46:25.217Z,22.97
2022-08-07T10:49:15.179Z,20.92
2022-08-07T10:52:13.857Z,20.86
2022-08-07T10:55:02.059Z,20.21
2022-08-07T10:57:42.675Z,20.77
2022-08-07T11:00:36.951Z,20.76
2022-08-07T11:03:28.144Z,21.92
2022-08-07T11:06:40.559Z,21.19
2022-08-07T11:10:09.318Z,21.11
2022-08-07T11:12:39.271Z,20.79
2022-08-07T11:15:31.515Z,19.91
2022-08-07T11:18:15.247Z,19.68
2022-08-07T11:21:03.393Z,19.36
2022-08-07T11:23:58.075Z,19.29
2022-08-07T11:26:48.147Z,19.19
2022-08-07T11:29:42.193Z,19.87
2022-08-07T11:32:25.368Z,20.32
2022-08-07T11:35:03.255Z,20.28
2022-08-07T11:37:58.067Z,21.29
2022-08-07T11:40:50.148Z,22.27
2022-08-07T11:44:11.812Z,22.24
2022-08-07T11:47:06.181Z,22.46
2022-08-07T11:50:31.964Z,22.56
2022-08-07T11:53:16.781Z,22.55
2022-08-07T11:56:27.306Z,21.34
2022-08-07T12:00:07.996Z,20.11
2022-08-07T12:02:40.260Z,20.38
2022-08-07T12:05:49.244Z,19.91
2022-08-07T12:08:31.901Z,20.24
2022-08-07T12:11:21.119Z,21.68
2022-08-07T12:14:29.876Z,21.46
2022-08-07T12:17:09.062Z,21.17
2022-08-07T12:20:08.819Z,21.57
2022-08-07T12:23:14.536Z,22.08
2022-08-07T12:26:05.989Z,21.50
2022-08-07T12:28:56.861Z,22.26
2022-08-07T12:31:52.329Z,22.42
2022-08-07T12:34:25.993Z,22.98
2022-08-07T12:36:58.813Z,22.76
2022-08-07T12:39:42.363Z,23.98
2022-08-07T12:42:18.698Z,23.24
2022-08-07T12:45:05.786Z,21.91
2022-08-07T12:47:57.292Z,21.83
2022-08-07T12:50:49.198Z,22.42
2022-08-07T12:53:19.149Z,22.93
2022-08-07T12:56:23.855Z,23.14
2022-08-07T12:58:59.607Z,23.75
2022-08-07T13:02:09.975Z,24.76
2022-08-07T13:05:14.670Z,23.13
2022-08-07T13:08:11.943Z,24.24
2022-08-07T13:11:19.932Z,24.21
2022-08-07T13:14:04.472Z,24.24
2022-08-07T13:16:53.403Z,25.45
2022-08-07T13:20:06.646Z,25.99
2022-08-07T13:22:56.133Z,27.49
2022-08-07T13:25:50.628Z,27.24
2022-08-07T13:28:35.926Z,27.69
2022-08-07T13:31:18.908Z,28.21
2022-08-07T13:34:33.503Z,28.86
2022-08-07T13:37:20.778Z,29.59
2022-08-07T13:40:36.701Z,29.42
2022-08-07T13:43:16.081Z,29.28
2022-08-07T13:46:12.195Z,29.78
2022-08-07T13:48:51.868Z,29.01
2022-08-07T13:52:22.519Z,29.33
2022-08-07T13:54:33.542Z,29.53
2022-08-07T13:57:12.070Z,29.36
2022-08-07T13:59:53.169Z,29.01
2022-08-07T14:02:39.492Z,28.49
2022-08-07T14:05:24.153Z,28.48
2022-08-07T14:08:01.528Z,28.32
2022-08-07T14:10:41.750Z,28.63
2022-08-07T14:13:19.810Z,28.70
2022-08-07T14:16:02.586Z,28.25
2022-08-07T14:18:50.011Z,28.33
2022-08-07T14:22:01.860Z,28.72
2022-08-07T14:24:41.395Z,28.22
2022-08-07T14:28:11.704Z,28.99
2022-08-07T14:30:12.322Z,29.19
2022-08-07T14:32:47.667Z,28.75
2022-08-07T14:35:45.307Z,29.66
2022-08-07T14:38:26.271Z,29.12
2022-08-07T14:41:14.905Z,28.87
2022-08-07T14:43:57.743Z,29.91
2022-08-07T14:49:57.284Z,32.18
2022-08-07T14:52:27.334Z,33.24
2022-08-07T14:55:00.891Z,34.22
2022-08-07T14:57:58.648Z,34.75
2022-08-07T15:00:30.873Z,35.45
2022-08-07T15:03:19.541Z,36.63
2022-08-07T15:05:54.863Z,37.52
2022-08-07T15:08:49.734Z,38.52
2022-08-07T15:11:53.192Z,39.24
2022-08-07T15:14:34.377Z,39.55
2022-08-07T15:17:33.005Z,39.98
2022-08-07T15:20:33.689Z,40.42
2022-08-07T15:23:20.094Z,40.71
2022-08-07T15:25:56.819Z,40.28
2022-08-07T15:28:37.999Z,40.37
2022-08-07T15:32:01.362Z,40.43
2022-08-07T15:34:06.397Z,40.14
2022-08-07T15:37:04.174Z,40.29
2022-08-07T15:39:58.972Z,40.75
2022-08-07T15:45:55.467Z,43.64
2022-08-07T15:48:35.016Z,43.48
2022-08-07T15:51:11.976Z,43.92
2022-08-07T15:53:53.148Z,46.20
2022-08-07T15:56:51.373Z,45.58
2022-08-07T15:59:39.301Z,45.20
2022-08-07T16:02:23.475Z,44.17
2022-08-07T16:05:15.924Z,44.23
2022-08-07T16:08:31.977Z,44.54
2022-08-07T16:10:48.878Z,44.90
2022-08-07T16:13:57.756Z,45.29
2022-08-07T16:16:42.906Z,45.73
2022-08-07T16:20:05.646Z,46.38
2022-08-07T16:22:55.464Z,46.87
2022-08-07T16:25:55.058Z,47.59
2022-08-07T16:29:18.246Z,47.90
2022-08-07T16:31:58.638Z,47.98
2022-08-07T16:34:45.371Z,48.30
2022-08-07T16:38:04.607Z,47.60
2022-08-07T16:41:02.120Z,47.35
2022-08-07T16:44:04.342Z,47.12
2022-08-07T16:47:38.310Z,47.28
2022-08-07T16:50:38.699Z,47.38
2022-08-07T16:53:48.037Z,47.52
2022-08-07T16:56:21.278Z,48.24
2022-08-07T16:59:10.927Z,50.03
2022-08-07T17:02:03.206Z,49.75
2022-08-07T17:04:58.620Z,50.73
2022-08-07T17:07:55.636Z,51.79
2022-08-07T17:10:54.338Z,53.50
2022-08-07T17:14:19.555Z,53.56
2022-08-07T17:16:58.729Z,54.28
2022-08-07T17:20:00.945Z,55.43
2022-08-07T17:22:42.437Z,55.83
2022-08-07T17:25:45.745Z,57.04
2022-08-07T17:28:19.681Z,57.31
2022-08-07T17:31:15.985Z,57.33
2022-08-07T17:34:17.969Z,58.32
2022-08-07T17:36:59.995Z,58.57
2022-08-07T17:39:58.166Z,59.39
2022-08-07T17:43:14.861Z,59.73
2022-08-07T17:46:14.413Z,59.46
2022-08-07T17:49:02.421Z,60.02
2022-08-07T17:52:01.179Z,60.11
2022-08-07T17:54:53.828Z,60.24
2022-08-07T17:57:56.308Z,60.04
2022-08-07T18:00:34.646Z,60.06
2022-08-07T18:04:04.250Z,59.70
2022-08-07T18:06:42.964Z,59.27
2022-08-07T18:10:06.502Z,59.88
2022-08-07T18:12:34.438Z,61.21
2022-08-07T18:15:13.364Z,61.51
2022-08-07T18:21:02.639Z,62.69
2022-08-07T18:21:38.186Z,62.23
2022-08-07T18:24:33.826Z,62.26
2022-08-07T18:27:06.345Z,62.28
2022-08-07T18:30:06.280Z,62.66
2022-08-07T18:33:15.125Z,61.57
2022-08-07T18:36:17.189Z,62.42
2022-08-07T18:40:08.819Z,63.23
2022-08-07T18:42:16.906Z,63.01
2022-08-07T18:45:44.819Z,62.37
2022-08-07T18:50:05.502Z,63.64
2022-08-07T18:52:52.478Z,64.81
2022-08-07T18:54:30.468Z,64.75
2022-08-07T18:57:29.478Z,64.74
2022-08-07T19:00:32.098Z,65.74
2022-08-07T19:03:18.271Z,65.59
2022-08-07T19:06:03.482Z,65.64
2022-08-07T19:08:58.633Z,66.63
2022-08-07T19:11:37.472Z,67.06
2022-08-07T19:14:20.319Z,66.22
2022-08-07T19:17:08.047Z,67.16
2022-08-07T19:19:58.954Z,67.90
2022-08-07T19:22:51.915Z,67.53
2022-08-07T19:26:22.930Z,67.85
2022-08-07T19:28:30.269Z,68.17
2022-08-07T19:31:59.820Z,68.05
2022-08-07T19:34:32.374Z,67.97
2022-08-07T19:37:10.245Z,67.63
2022-08-07T19:39:57.435Z,66.62
2022-08-07T19:42:42.851Z,68.47
2022-08-07T19:46:06.231Z,68.69
2022-08-07T19:48:18.740Z,68.72
2022-08-07T19:50:54.491Z,68.68
2022-08-07T19:54:32.670Z,69.03
2022-08-07T19:58:00.890Z,68.91
2022-08-07T19:59:21.851Z,68.68
2022-08-07T20:01:59.242Z,67.60
2022-08-07T20:04:37.663Z,65.87
2022-08-07T20:07:10.259Z,65.48
2022-08-07T20:10:36.477Z,65.73
2022-08-07T20:12:43.088Z,65.97
2022-08-07T20:15:19.071Z,66.61
2022-08-07T20:18:01.709Z,69.41
2022-08-07T20:20:35.277Z,66.68
2022-08-07T20:23:23.014Z,67.37
2022-08-07T20:26:09.766Z,70.19
2022-08-07T20:28:40.442Z,69.16
2022-08-07T20:31:21.187Z,70.33
2022-08-07T20:33:57.544Z,69.33
2022-08-07T20:36:30.009Z,70.60
2022-08-07T20:39:17.820Z,71.45
2022-08-07T20:41:55.265Z,72.06
2022-08-07T20:44:34.561Z,72.12
2022-08-07T20:47:09.688Z,71.74
2022-08-07T20:49:57.799Z,71.01
2022-08-07T20:52:51.532Z,72.05
2022-08-07T20:55:26.059Z,69.38
2022-08-07T20:58:03.986Z,69.34
2022-08-07T21:00:45.679Z,68.83
2022-08-07T21:03:18.910Z,69.50
2022-08-07T21:06:21.765Z,69.57
2022-08-07T21:09:13.966Z,71.00
2022-08-07T21:11:50.882Z,70.19
2022-08-07T21:14:34.040Z,71.32
2022-08-07T21:18:03.031Z,74.00
2022-08-07T21:20:05.565Z,73.97
2022-08-07T21:22:45.162Z,74.24
2022-08-07T21:25:20.667Z,74.29
2022-08-07T21:28:04.703Z,74.38
2022-08-07T21:30:47.415Z,73.88
2022-08-07T21:33:41.535Z,74.06
2022-08-07T21:36:32.735Z,73.18
2022-08-07T21:39:47.850Z,72.70
2022-08-07T21:42:45.998Z,72.69
2022-08-07T21:46:08.946Z,73.80
2022-08-07T21:48:26.957Z,73.51
2022-08-07T21:51:24.952Z,73.37
2022-08-07T21:54:22.285Z,73.01
2022-08-07T21:57:39.936Z,72.05
2022-08-07T22:00:22.949Z,73.95
2022-08-07T22:02:59.232Z,72.03
2022-08-07T22:05:45.208Z,71.29
2022-08-07T22:08:20.915Z,73.95
2022-08-07T22:11:00.118Z,74.55
2022-08-07T22:13:50.375Z,74.43
2022-08-07T22:16:46.906Z,73.37
2022-08-07T22:19:52.056Z,71.76
2022-08-07T22:22:36.739Z,74.22
2022-08-07T22:25:36.689Z,76.28
2022-08-07T22:28:32.503Z,75.84
2022-08-07T22:31:58.937Z,75.69
2022-08-07T22:34:33.180Z,75.85
2022-08-07T22:37:15.104Z,75.87
2022-08-07T22:39:59.517Z,76.13
2022-08-07T22:42:34.218Z,76.20
2022-08-07T22:45:10.965Z,76.35
2022-08-07T22:48:56.239Z,76.20
2022-08-07T22:51:36.705Z,76.27
2022-08-07T22:54:32.796Z,76.15
2022-08-07T22:57:17.129Z,76.31
2022-08-07T22:59:52.933Z,75.99
2022-08-07T23:02:49.275Z,76.48
2022-08-07T23:06:07.612Z,77.12
2022-08-07T23:08:46.292Z,76.87
2022-08-07T23:11:48.554Z,77.04
2022-08-07T23:14:22.747Z,76.32
2022-08-07T23:17:03.946Z,76.27
2022-08-07T23:20:05.157Z,77.06
2022-08-07T23:23:09.771Z,76.38
2022-08-07T23:26:01.316Z,74.75
2022-08-07T23:29:16.576Z,75.73
2022-08-07T23:34:20.708Z,75.70
2022-08-07T23:35:13.383Z,77.46
2022-08-07T23:38:14.472Z,76.94
2022-08-07T23:40:51.712Z,75.53
2022-08-07T23:43:51.368Z,74.56
2022-08-07T23:47:07.592Z,73.84
2022-08-07T23:50:02.065Z,75.13
2022-08-07T23:53:00.046Z,78.84
2022-08-07T23:55:55.519Z,78.50
2022-08-07T23:58:37.334Z,76.24
